»·PEaware :: N921VN KHND-KGCN

N921VN :: KHND-KGCN

FLIGHT INFORMATION

Flight Status: Arrived
Operator: Privately registered:
United States
More flights under this callsign
Pilot: Kevin M. (7)
Aircraft: CESSNA 172 SKYHAWK
(C172)
More flights by this aircraft type
Origin: KHND Henderson
United States
Destination: KGCN Grand Canyon Natl Park
United States
More flights between these airports :: More routes between these airports
Route:
File this flight plan on PilotEdge
Remarks:
Altitude:
(Current/Filed)
9,500ft
Speed:
(Current/Filed)
150kts
Departed: 11-Nov-20 01:15 PM
Arrived: 11-Nov-20 02:33 PM
Distance/Time
Traveled:
145nm/1:17
Distance/Time
To Go:
Arrived

Flight Plot

Page will automatically refresh every two minutes.


Map Options




Map Legend


Flown Route
Filed Route
Departure Airport
Arrival Airport
Navaid (VOR, NDB)
Fix

Horizontal Profiles

Position Reports

Time Latitude Longitude Heading Altitude Ground
Speed
11-Nov-20 13:09 35.967675 -115.137757 270 2475ft 0kts
11-Nov-20 13:10 35.967675 -115.137757 270 2475ft 0kts
11-Nov-20 13:11 35.967407 -115.136994 159 2479ft 17kts
11-Nov-20 13:12 35.963601 -115.136555 181 2498ft 12kts
11-Nov-20 13:13 35.963479 -115.135561 2 2498ft 0kts
11-Nov-20 13:14 35.974859 -115.135441 359 2625ft 81kts
11-Nov-20 13:15 35.986753 -115.119324 106 3246ft 84kts
11-Nov-20 13:16 35.984118 -115.090656 90 3832ft 86kts
11-Nov-20 13:17 35.980896 -115.060704 97 4299ft 95kts
11-Nov-20 13:18 35.976959 -115.025562 99 4478ft 111kts
11-Nov-20 13:19 35.962543 -114.991690 123 4603ft 112kts
11-Nov-20 13:20 35.945616 -114.958024 120 4673ft 110kts
11-Nov-20 13:21 35.932363 -114.924445 114 4913ft 105kts
11-Nov-20 13:22 35.920717 -114.892070 114 5212ft 101kts
11-Nov-20 13:23 35.909530 -114.860708 109 5514ft 98kts
11-Nov-20 13:24 35.907071 -114.824492 94 5538ft 111kts
11-Nov-20 13:25 35.904857 -114.785985 94 5533ft 113kts
11-Nov-20 13:26 35.903473 -114.748093 123 5534ft 119kts
11-Nov-20 13:27 35.893538 -114.707553 106 5526ft 124kts
11-Nov-20 13:28 35.884040 -114.666226 106 5528ft 125kts
11-Nov-20 13:29 35.874554 -114.625079 106 5595ft 123kts
11-Nov-20 13:30 35.865238 -114.584684 106 5700ft 122kts
11-Nov-20 13:31 35.855949 -114.544324 106 5793ft 122kts
11-Nov-20 13:32 35.846699 -114.504220 106 5894ft 122kts
11-Nov-20 13:33 35.837321 -114.463571 106 5995ft 123kts
11-Nov-20 13:34 35.827929 -114.422862 106 6097ft 123kts
11-Nov-20 13:35 35.818531 -114.382171 105 6197ft 123kts
11-Nov-20 13:36 35.809144 -114.341474 106 6299ft 123kts
11-Nov-20 13:37 35.799746 -114.300817 106 6396ft 123kts
11-Nov-20 13:38 35.790359 -114.260130 106 6496ft 123kts
11-Nov-20 13:39 35.780952 -114.219456 106 6594ft 122kts
11-Nov-20 13:40 35.771636 -114.179090 106 6694ft 122kts
11-Nov-20 13:41 35.762312 -114.138757 106 6794ft 122kts
11-Nov-20 13:42 35.752977 -114.098363 106 6895ft 122kts
11-Nov-20 13:43 35.743656 -114.058051 106 6996ft 122kts
11-Nov-20 13:44 35.734311 -114.017648 106 7097ft 122kts
11-Nov-20 13:45 35.724998 -113.977384 106 7197ft 122kts
11-Nov-20 13:46 35.715676 -113.937117 106 7297ft 122kts
11-Nov-20 13:47 35.706323 -113.896676 106 7367ft 124kts
11-Nov-20 13:48 35.697082 -113.856766 106 7567ft 119kts
11-Nov-20 13:49 35.687942 -113.817294 106 7697ft 121kts
11-Nov-20 13:50 35.678722 -113.777488 106 7794ft 121kts
11-Nov-20 13:51 35.669456 -113.737481 106 7896ft 121kts
11-Nov-20 13:52 35.660220 -113.697626 106 7993ft 121kts
11-Nov-20 13:53 35.651006 -113.657870 106 8098ft 121kts
11-Nov-20 13:54 35.641766 -113.618015 106 8194ft 121kts
11-Nov-20 13:55 35.632861 -113.578213 103 8295ft 120kts
11-Nov-20 13:56 35.627486 -113.537633 93 8394ft 120kts
11-Nov-20 13:57 35.638923 -113.499157 68 8469ft 121kts
11-Nov-20 13:58 35.651065 -113.460544 68 8567ft 120kts
11-Nov-20 13:59 35.663081 -113.422280 68 8667ft 119kts
11-Nov-20 14:00 35.673986 -113.383623 100 8773ft 121kts
11-Nov-20 14:01 35.685784 -113.349085 64 8871ft 119kts
11-Nov-20 14:02 35.698023 -113.310902 68 8971ft 120kts
11-Nov-20 14:03 35.709998 -113.272729 68 9070ft 119kts
11-Nov-20 14:04 35.710842 -113.235068 116 9178ft 119kts
11-Nov-20 14:05 35.715578 -113.196037 74 9277ft 119kts
11-Nov-20 14:06 35.724841 -113.156093 73 9375ft 122kts
11-Nov-20 14:07 35.732198 -113.114527 79 9378ft 125kts
11-Nov-20 14:08 35.741645 -113.073098 73 9377ft 125kts
11-Nov-20 14:09 35.751325 -113.031756 73 9380ft 126kts
11-Nov-20 14:10 35.761043 -112.990244 73 9378ft 126kts
11-Nov-20 14:11 35.770744 -112.948804 73 9377ft 125kts
11-Nov-20 14:12 35.780445 -112.907364 73 9377ft 125kts
11-Nov-20 14:13 35.790142 -112.865956 73 9377ft 125kts
11-Nov-20 14:14 35.799824 -112.824583 73 9380ft 126kts
11-Nov-20 14:15 35.809546 -112.782845 73 9378ft 126kts
11-Nov-20 14:16 35.819236 -112.741248 73 9377ft 126kts
11-Nov-20 14:17 35.828920 -112.699675 73 9378ft 126kts
11-Nov-20 14:18 35.838624 -112.658026 73 9354ft 127kts
11-Nov-20 14:19 35.848548 -112.615489 73 9253ft 129kts
11-Nov-20 14:20 35.858498 -112.572861 73 9152ft 129kts
11-Nov-20 14:21 35.868449 -112.530249 73 9052ft 129kts
11-Nov-20 14:22 35.878438 -112.487502 73 8952ft 129kts
11-Nov-20 14:23 35.888259 -112.445496 73 8946ft 126kts
11-Nov-20 14:24 35.897983 -112.403904 73 8948ft 126kts
11-Nov-20 14:25 35.907793 -112.361960 73 8904ft 128kts
11-Nov-20 14:27 35.917754 -112.319441 73 8805ft 129kts
11-Nov-20 14:28 35.927957 -112.275931 73 8557ft 134kts
11-Nov-20 14:29 35.938396 -112.231472 73 8254ft 134kts
11-Nov-20 14:30 35.948795 -112.187243 73 7953ft 134kts
11-Nov-20 14:31 35.968619 -112.151102 45 7768ft 115kts
11-Nov-20 14:32 35.972474 -112.127001 181 7140ft 87kts
11-Nov-20 14:33 35.956794 -112.141813 156 6595ft 21kts
11-Nov-20 14:34 35.957679 -112.139601 41 6599ft 18kts

Navigation Log

Ident Type
Flight plan parsing failed, navigation log unavailable